Limon, CO

3:59 PM MST on January 23, 2017 (GMT -0700)
Limon Municipal | | Change Station

Elev 5364 ft 39.27 °N, 103.67 °W | Updated 4 minutes ago

Clear
Clear
51 °F
Feels Like 51 °F
N
18
Wind Variable Wind from SW
Gusts 26 mph

Today
High -- | Low -- °F
--% Chance of Precip.
Yesterday
High -- | Low -- °F
Precip. -- in
Pressure 29.48 in
Visibility 10.0 miles
Clouds Clear
Dew Point 21 °F
Humidity 31%
Rainfall 0.00 in
Snow Depth Not available.
7:08 AM 5:05 PM
Waning Crescent, 15% visible
METAR KLIC 232255Z AUTO 22016G23KT 10SM CLR 11/M06 A2952 RMK AO2 SLP981 T01061061
Pressure 29.48 in
Visibility 10.0 miles
Clouds Clear
Dew Point 21 °F
Humidity 31%
Rainfall 0.00 in
Snow Depth Not available.
7:08 AM 5:05 PM
Waning Crescent, 15% visible
METAR KLIC 232255Z AUTO 22016G23KT 10SM CLR 11/M06 A2952 RMK AO2 SLP981 T01061061

Get Your Daily Forecast Email!

Thanks for signing up!

Be on the lookout for a verification email in your inbox.

You'll start receiving the daily forecast at 8 AM.

×

10-Day Weather Forecast

Almanac

Astronomy

Jan. 23, 2017 Rise Set
Actual Time
Civil Twilight
Nautical Twilight
Astronomical Twilight
Moon
Length of Visible Light
Length of Day
Tomorrow will be .
, % of the Moon is Illuminated

Today's Extremes

State Highs State Lows

Community

WunderPhotos

Upload Photos

1,962,540 photos uploaded!

WunderBlog® & News

Nearby

Air Quality

  Air Quality AQ Index Pollutant
Not available.

Snow Depth

Station Depth Elevation

Earthquake Activity

City Distance Mag. Time & Date
Minimum magnitude displayed is 2.5.

Coastal Water Temperatures

Place Temperature

Stations

Nearby Weather Stations

Station Location Temp. Windchill Dew Point Humidity Wind Precip. Elev Updated Type
                   

Watches & Warnings

There are currently no watches in effect.